Date,TemperatureHighF,TemperatureAvgF,TemperatureLowF,DewpointHighF,DewpointAvgF,DewpointLowF,HumidityHigh,HumidityAvg,HumidityLow,PressureMaxIn,PressureMinIn,WindSpeedMaxMPH,WindSpeedAvgMPH,GustSpeedMaxMPH,PrecipitationSumIn
2013-1-1,33.7,23.4,10.8,28.7,16.9,7.2,87,76,65,30.13,29.92,9,2,18,0.00
2013-1-2,25.6,20.7,12.8,21.6,16.0,8.4,92,82,69,30.31,30.08,7,2,15,0.00
2013-1-3,29.0,21.7,12.8,26.4,18.3,9.4,93,87,79,30.31,30.06,8,2,18,0.00
2013-1-4,32.6,31.9,30.8,26.8,25.9,24.2,81,78,76,30.09,29.95,22,7,25,0.00
2013-1-5,35.7,31.9,28.9,28.2,25.9,23.5,82,78,72,30.37,30.10,10,2,20,0.04
2013-1-6,37.3,34.3,30.1,32.9,30.4,24.4,93,86,79,30.15,29.96,7,3,15,0.20
2013-1-7,35.0,28.3,23.1,32.4,23.7,19.3,90,83,73,30.49,30.16,6,1,12,0.02
2013-1-8,39.3,32.0,25.2,30.0,26.0,21.2,92,79,68,30.41,30.35,5,1,9,0.05
2013-1-9,47.1,36.7,27.2,37.1,29.3,21.6,81,75,62,30.39,30.03,12,4,23,0.03
2013-1-10,44.2,37.5,32.8,30.8,29.4,27.0,87,73,57,30.67,30.40,10,1,16,0.00
2013-1-11,44.1,40.4,34.6,39.9,34.2,27.7,91,79,58,30.51,29.96,11,4,18,0.11
2013-1-12,56.7,48.5,41.8,50.6,45.2,39.7,94,88,80,30.07,30.01,7,2,10,0.00
2013-1-13,68.6,55.9,49.4,58.4,51.6,47.1,95,86,70,30.03,29.80,15,3,19,0.01
2013-1-14,53.7,35.9,28.1,51.4,30.0,21.4,94,79,69,30.46,29.79,19,3,23,0.02
2013-1-15,34.6,29.3,24.1,24.3,22.1,20.2,86,74,59,30.49,30.28,5,1,11,0.00
2013-1-16,39.8,35.1,31.5,31.1,28.4,26.0,82,76,70,30.00,29.86,8,3,17,0.00
2013-1-17,35.6,25.3,17.1,30.0,19.0,12.4,89,77,66,30.27,29.91,12,2,17,0.00
2013-1-18,29.3,21.1,16.2,19.4,13.9,10.5,90,75,58,30.53,30.12,8,2,15,0.02
2013-1-19,47.8,40.6,28.8,32.1,26.9,19.6,69,58,47,30.12,29.65,11,4,20,0.00
2013-1-20,48.3,34.3,18.3,36.7,23.9,12.3,87,66,48,30.15,29.51,21,8,30,0.02
2013-1-21,21.7,18.8,13.6,15.1,11.5,6.0,84,73,63,30.14,29.95,9,2,16,0.00
2013-1-22,13.9,10.1,7.6,5.0,1.8,-1.3,83,69,59,30.28,29.99,9,4,17,0.00
2013-1-23,14.0,10.0,6.7,7.9,4.6,0.1,89,79,60,30.34,30.19,8,2,12,0.00
2013-1-24,14.2,11.4,8.7,10.3,6.9,3.4,89,82,72,30.62,30.19,13,1,15,0.00
2013-1-25,16.4,12.4,8.2,12.1,7.8,4.8,89,82,71,30.60,30.19,4,1,6,0.00
2013-1-26,24.5,14.3,1.3,16.6,9.7,-1.9,90,82,62,30.49,30.19,4,0,7,0.02
2013-1-27,28.6,22.3,16.8,17.8,16.4,13.6,90,78,61,30.66,30.47,4,0,7,0.04
2013-1-28,42.1,33.1,24.2,41.3,30.3,17.7,97,90,74,30.44,29.92,9,2,12,0.16
2013-1-29,53.9,40.5,32.0,52.5,39.7,31.2,98,97,94,30.13,29.81,7,1,17,0.39
2013-1-30,62.5,57.2,52.6,56.1,51.9,49.3,95,82,74,29.81,29.09,16,5,21,0.11
2013-1-31,53.7,30.7,21.7,51.4,23.1,12.0,93,74,51,29.76,29.06,16,7,31,0.10